createdAt,value
2018-06-13T00:00:50.036Z,15.40
2018-06-13T00:03:19.285Z,15.30
2018-06-13T00:05:48.505Z,15.30
2018-06-13T00:08:18.011Z,15.20
2018-06-13T00:10:48.111Z,15.20
2018-06-13T00:13:17.592Z,15.30
2018-06-13T00:15:46.792Z,15.20
2018-06-13T00:18:16.446Z,15.20
2018-06-13T00:20:45.763Z,15.20
2018-06-13T00:23:14.947Z,15.20
2018-06-13T00:25:44.290Z,15.10
2018-06-13T00:28:13.666Z,15.10
2018-06-13T00:30:42.852Z,15.10
2018-06-13T00:33:12.628Z,15.20
2018-06-13T00:35:42.341Z,15.20
2018-06-13T00:38:11.535Z,15.10
2018-06-13T00:40:40.723Z,15.10
2018-06-13T00:43:10.305Z,15.10
2018-06-13T00:48:08.744Z,15.00
2018-06-13T00:50:38.072Z,15.00
2018-06-13T00:53:07.427Z,15.00
2018-06-13T00:55:52.832Z,14.90
2018-06-13T00:58:22.556Z,14.90
2018-06-13T01:00:51.729Z,14.90
2018-06-13T01:03:21.130Z,14.80
2018-06-13T01:05:50.560Z,14.80
2018-06-13T01:08:19.769Z,14.70
2018-06-13T01:10:49.120Z,14.70
2018-06-13T01:13:18.305Z,14.70
2018-06-13T01:15:47.823Z,14.80
2018-06-13T01:18:17.154Z,14.80
2018-06-13T01:20:46.478Z,14.80
2018-06-13T01:23:15.638Z,14.90
2018-06-13T01:25:44.832Z,14.90
2018-06-13T01:28:14.003Z,14.80
2018-06-13T01:30:43.217Z,14.80
2018-06-13T01:33:12.427Z,14.80
2018-06-13T01:35:41.773Z,14.80
2018-06-13T01:38:10.978Z,14.90
2018-06-13T01:40:40.228Z,14.90
2018-06-13T01:43:09.430Z,14.90
2018-06-13T01:45:38.786Z,14.90
2018-06-13T01:48:08.023Z,14.90
2018-06-13T01:50:37.316Z,14.90
2018-06-13T01:53:06.541Z,14.90
2018-06-13T01:55:38.713Z,14.90
2018-06-13T01:58:07.880Z,15.00
2018-06-13T02:00:37.249Z,15.10
2018-06-13T02:03:06.433Z,15.10
2018-06-13T02:05:35.604Z,15.00
2018-06-13T02:08:05.404Z,15.10
2018-06-13T02:10:34.651Z,15.10
2018-06-13T02:13:04.015Z,15.10
2018-06-13T02:15:33.188Z,15.00
2018-06-13T02:18:02.726Z,15.00
2018-06-13T02:20:32.100Z,15.00
2018-06-13T02:23:01.338Z,14.90
2018-06-13T02:25:30.544Z,14.90
2018-06-13T02:27:59.820Z,14.90
2018-06-13T02:30:29.389Z,14.90
2018-06-13T02:32:58.714Z,14.90
2018-06-13T02:35:28.956Z,14.90
2018-06-13T02:37:58.115Z,14.90
2018-06-13T02:40:27.719Z,14.90
2018-06-13T02:42:57.037Z,14.90
2018-06-13T02:45:26.247Z,14.90
2018-06-13T02:47:55.464Z,14.90
2018-06-13T02:52:53.556Z,14.90
2018-06-13T02:55:22.768Z,14.90
2018-06-13T02:57:51.970Z,14.90
2018-06-13T03:02:50.056Z,14.90
2018-06-13T03:05:19.237Z,14.90
2018-06-13T03:07:48.547Z,14.90
2018-06-13T03:10:17.873Z,14.90
2018-06-13T03:12:47.070Z,14.80
2018-06-13T03:15:16.372Z,14.80
2018-06-13T03:17:45.739Z,14.90
2018-06-13T03:20:15.107Z,14.90
2018-06-13T03:22:44.319Z,14.90
2018-06-13T03:25:13.690Z,14.90
2018-06-13T03:27:42.920Z,14.90
2018-06-13T03:30:12.114Z,14.90
2018-06-13T03:32:41.316Z,14.80
2018-06-13T03:35:10.927Z,14.80
2018-06-13T03:37:40.046Z,14.80
2018-06-13T03:40:09.520Z,14.80
2018-06-13T03:42:38.814Z,14.80
2018-06-13T03:45:08.760Z,14.80
2018-06-13T03:50:06.773Z,14.90
2018-06-13T03:52:36.423Z,14.90
2018-06-13T03:55:06.080Z,14.90
2018-06-13T03:57:35.607Z,14.90
2018-06-13T04:00:05.096Z,14.90
2018-06-13T04:02:35.136Z,14.90
2018-06-13T04:05:04.536Z,14.90
2018-06-13T04:07:33.997Z,14.90
2018-06-13T04:12:32.779Z,14.90
2018-06-13T04:15:02.162Z,14.90
2018-06-13T04:17:31.522Z,15.00
2018-06-13T04:20:00.727Z,15.00
2018-06-13T04:22:29.986Z,15.10
2018-06-13T04:24:59.164Z,15.10
2018-06-13T04:27:29.139Z,15.00
2018-06-13T04:29:58.407Z,15.00
2018-06-13T04:34:56.627Z,15.00
2018-06-13T04:37:26.044Z,15.00
2018-06-13T04:39:55.266Z,14.90
2018-06-13T04:42:24.463Z,15.00
2018-06-13T04:44:53.688Z,15.00
2018-06-13T04:47:23.043Z,15.10
2018-06-13T04:49:52.268Z,15.10
2018-06-13T04:52:21.563Z,15.20
2018-06-13T04:54:50.887Z,15.30
2018-06-13T04:57:20.946Z,15.30
2018-06-13T04:59:50.233Z,15.30
2018-06-13T05:02:19.428Z,15.30
2018-06-13T05:04:48.746Z,15.30
2018-06-13T05:07:17.973Z,15.40
2018-06-13T05:09:47.207Z,15.50
2018-06-13T05:12:16.380Z,15.40
2018-06-13T05:14:45.616Z,15.40
2018-06-13T05:17:14.732Z,15.50
2018-06-13T05:19:43.928Z,15.50
2018-06-13T05:22:13.182Z,15.40
2018-06-13T05:24:42.804Z,15.40
2018-06-13T05:27:12.217Z,15.40
2018-06-13T05:29:41.654Z,15.30
2018-06-13T05:32:11.190Z,15.30
2018-06-13T05:34:40.439Z,15.30
2018-06-13T05:37:09.660Z,15.30
2018-06-13T05:39:38.905Z,15.40
2018-06-13T05:42:08.109Z,15.30
2018-06-13T05:44:37.693Z,15.30
2018-06-13T05:47:06.881Z,15.30
2018-06-13T05:49:36.236Z,15.30
2018-06-13T05:52:05.510Z,15.40
2018-06-13T05:54:34.864Z,15.40
2018-06-13T05:57:04.488Z,15.30
2018-06-13T05:59:33.700Z,15.30
2018-06-13T06:02:02.983Z,15.40
2018-06-13T06:04:32.566Z,15.40
2018-06-13T06:07:01.741Z,15.50
2018-06-13T06:09:31.089Z,15.50
2018-06-13T06:12:00.325Z,15.50
2018-06-13T06:14:29.756Z,15.60
2018-06-13T06:16:59.018Z,15.60
2018-06-13T06:19:28.195Z,15.70
2018-06-13T06:21:57.444Z,15.70
2018-06-13T06:24:26.769Z,15.70
2018-06-13T06:26:55.987Z,15.80
2018-06-13T06:29:25.211Z,15.80
2018-06-13T06:31:54.426Z,15.80
2018-06-13T06:34:23.593Z,15.80
2018-06-13T06:36:52.922Z,15.80
2018-06-13T06:39:22.115Z,15.90
2018-06-13T06:44:20.442Z,16.00
2018-06-13T06:46:50.545Z,16.00
2018-06-13T06:49:19.816Z,16.10
2018-06-13T06:51:49.310Z,16.10
2018-06-13T06:54:18.652Z,16.10
2018-06-13T06:56:48.533Z,16.10
2018-06-13T06:59:17.711Z,16.10
2018-06-13T07:01:47.014Z,16.10
2018-06-13T07:04:16.235Z,16.10
2018-06-13T07:06:45.429Z,16.10
2018-06-13T07:09:14.706Z,16.10
2018-06-13T07:11:44.020Z,16.00
2018-06-13T07:14:13.209Z,16.10
2018-06-13T07:16:42.388Z,16.20
2018-06-13T07:19:11.557Z,16.20
2018-06-13T07:21:40.811Z,16.20
2018-06-13T07:24:10.203Z,16.30
2018-06-13T07:26:40.361Z,16.30
2018-06-13T07:29:09.575Z,16.30
2018-06-13T07:31:38.847Z,16.30
2018-06-13T07:36:36.791Z,16.30
2018-06-13T07:39:09.326Z,16.30
2018-06-13T07:44:07.256Z,16.30
2018-06-13T07:46:36.471Z,16.30
2018-06-13T07:49:05.685Z,16.20
2018-06-13T07:51:34.983Z,16.20
2018-06-13T07:54:04.171Z,16.20
2018-06-13T07:56:33.396Z,16.20
2018-06-13T07:59:02.691Z,16.20
2018-06-13T08:01:32.055Z,16.10
2018-06-13T08:04:01.277Z,16.10
2018-06-13T08:08:59.312Z,16.10
2018-06-13T08:11:28.661Z,16.20
2018-06-13T08:13:58.222Z,16.10
2018-06-13T08:16:27.532Z,16.20
2018-06-13T08:18:56.868Z,16.20
2018-06-13T08:21:26.092Z,16.20
2018-06-13T08:23:55.518Z,16.20
2018-06-13T08:26:24.700Z,16.30
2018-06-13T08:28:54.093Z,16.40
2018-06-13T08:31:23.444Z,16.40
2018-06-13T08:33:52.728Z,16.40
2018-06-13T08:36:22.141Z,16.40
2018-06-13T08:38:51.386Z,16.40
2018-06-13T08:41:20.643Z,16.30
2018-06-13T08:43:49.846Z,16.30
2018-06-13T08:46:19.047Z,16.40
2018-06-13T08:48:48.254Z,16.40
2018-06-13T08:51:17.483Z,16.50
2018-06-13T08:53:46.728Z,16.40
2018-06-13T08:56:16.161Z,16.30
2018-06-13T08:58:45.371Z,16.40
2018-06-13T09:01:14.697Z,16.40
2018-06-13T09:03:43.927Z,16.40
2018-06-13T09:06:13.971Z,16.50
2018-06-13T09:08:43.206Z,16.50
2018-06-13T09:11:12.396Z,16.60
2018-06-13T09:13:41.829Z,16.60
2018-06-13T09:16:11.026Z,16.60
2018-06-13T09:18:40.222Z,16.60
2018-06-13T09:21:09.794Z,16.70
2018-06-13T09:23:39.132Z,16.60
2018-06-13T09:26:08.588Z,16.60
2018-06-13T09:28:40.910Z,16.60
2018-06-13T09:31:10.239Z,16.60
2018-06-13T09:33:39.550Z,16.70
2018-06-13T09:36:08.887Z,16.70
2018-06-13T09:38:38.085Z,16.70
2018-06-13T09:41:07.454Z,16.70
2018-06-13T09:43:36.644Z,16.70
2018-06-13T09:46:11.863Z,16.70
2018-06-13T09:48:35.156Z,16.60
2018-06-13T09:51:04.707Z,16.70
2018-06-13T09:53:33.913Z,16.80
2018-06-13T09:56:03.591Z,16.80
2018-06-13T09:58:37.992Z,16.90
2018-06-13T10:03:36.680Z,17.00
2018-06-13T10:06:06.339Z,16.90
2018-06-13T10:08:35.715Z,17.00
2018-06-13T10:11:05.351Z,17.10
2018-06-13T10:13:34.564Z,17.10
2018-06-13T10:16:03.980Z,17.10
2018-06-13T10:18:33.379Z,17.20
2018-06-13T10:21:02.647Z,17.30
2018-06-13T10:23:32.103Z,17.30
2018-06-13T10:26:01.287Z,17.20
2018-06-13T10:28:30.480Z,17.30
2018-06-13T10:30:59.672Z,17.20
2018-06-13T10:33:28.947Z,17.20
2018-06-13T10:35:58.409Z,17.20
2018-06-13T10:38:27.785Z,17.20
2018-06-13T10:40:57.055Z,17.20
2018-06-13T10:43:26.267Z,17.20
2018-06-13T10:45:55.887Z,17.10
2018-06-13T10:48:25.152Z,17.00
2018-06-13T10:50:54.331Z,16.90
2018-06-13T10:53:23.549Z,16.90
2018-06-13T10:55:52.776Z,16.80
2018-06-13T10:58:28.682Z,16.70
2018-06-13T11:00:57.963Z,16.60
2018-06-13T11:03:27.171Z,16.60
2018-06-13T11:05:56.709Z,16.50
2018-06-13T11:08:25.985Z,16.60
2018-06-13T11:10:55.259Z,16.60
2018-06-13T11:13:24.465Z,16.60
2018-06-13T11:15:53.700Z,16.60
2018-06-13T11:18:22.904Z,16.70
2018-06-13T11:20:52.100Z,16.90
2018-06-13T11:23:21.334Z,17.10
2018-06-13T11:25:50.631Z,17.20
2018-06-13T11:28:20.279Z,17.30
2018-06-13T11:30:49.439Z,17.50
2018-06-13T11:33:18.681Z,17.70
2018-06-13T11:35:47.868Z,17.70
2018-06-13T11:38:17.059Z,17.50
2018-06-13T11:40:46.264Z,17.50
2018-06-13T11:43:15.449Z,17.40
2018-06-13T11:45:44.673Z,17.20
2018-06-13T11:48:14.255Z,17.20
2018-06-13T11:50:43.499Z,17.10
2018-06-13T11:53:13.135Z,17.10
2018-06-13T11:55:42.360Z,17.10
2018-06-13T12:00:40.967Z,17.20
2018-06-13T12:03:10.224Z,17.20
2018-06-13T12:05:39.615Z,17.40
2018-06-13T12:08:08.804Z,17.40
2018-06-13T12:10:38.123Z,17.60
2018-06-13T12:13:07.365Z,17.80
2018-06-13T12:15:36.867Z,17.90
2018-06-13T12:20:34.869Z,18.20
2018-06-13T12:23:04.072Z,18.40
2018-06-13T12:25:33.633Z,18.50
2018-06-13T12:28:02.816Z,18.70
2018-06-13T12:30:35.135Z,18.80
2018-06-13T12:33:04.704Z,19.30
2018-06-13T12:35:33.959Z,19.30
2018-06-13T12:38:03.237Z,19.20
2018-06-13T12:40:32.531Z,18.90
2018-06-13T12:43:01.841Z,18.70
2018-06-13T12:45:31.529Z,18.60
2018-06-13T12:48:00.704Z,18.50
2018-06-13T12:52:58.908Z,18.60
2018-06-13T12:57:57.089Z,18.60
2018-06-13T13:00:26.384Z,18.60
2018-06-13T13:02:55.755Z,18.60
2018-06-13T13:05:25.080Z,18.70
2018-06-13T13:07:54.344Z,18.80
2018-06-13T13:10:23.664Z,18.80
2018-06-13T13:12:52.880Z,19.00
2018-06-13T13:15:22.439Z,19.30
2018-06-13T13:17:51.643Z,19.30
2018-06-13T13:20:21.745Z,19.50
2018-06-13T13:25:19.936Z,19.90
2018-06-13T13:27:49.276Z,19.90
2018-06-13T13:30:18.521Z,20.50
2018-06-13T13:35:16.487Z,20.80
2018-06-13T13:37:45.667Z,20.70
2018-06-13T13:40:15.812Z,20.70
2018-06-13T13:42:45.311Z,20.70
2018-06-13T13:45:14.509Z,21.00
2018-06-13T13:50:12.936Z,21.40
2018-06-13T13:52:42.268Z,20.90
2018-06-13T13:55:11.517Z,20.50
2018-06-13T13:57:41.127Z,20.30
2018-06-13T14:00:10.364Z,20.10
2018-06-13T14:05:09.331Z,20.30
2018-06-13T14:07:38.660Z,20.50
2018-06-13T14:10:07.966Z,20.30
2018-06-13T14:12:37.435Z,20.00
2018-06-13T14:17:35.459Z,19.60
2018-06-13T14:20:05.951Z,19.50
2018-06-13T14:25:04.028Z,19.40
2018-06-13T14:27:33.331Z,19.30
2018-06-13T14:30:02.607Z,19.40
2018-06-13T14:32:31.788Z,19.30
2018-06-13T14:35:00.996Z,19.30
2018-06-13T14:37:30.436Z,19.20
2018-06-13T14:42:29.088Z,19.30
2018-06-13T14:44:58.689Z,19.50
2018-06-13T14:49:57.714Z,20.60
2018-06-13T14:52:27.130Z,20.40
2018-06-13T14:54:56.609Z,20.10
2018-06-13T14:57:26.111Z,19.90
2018-06-13T14:59:55.373Z,20.30
2018-06-13T15:02:24.907Z,20.60
2018-06-13T15:04:54.409Z,20.40
2018-06-13T15:07:23.931Z,20.10
2018-06-13T15:09:53.455Z,19.90
2018-06-13T15:12:22.960Z,19.80
2018-06-13T15:14:52.284Z,19.70
2018-06-13T15:17:21.684Z,19.60
2018-06-13T15:19:50.944Z,19.70
2018-06-13T15:22:20.473Z,20.10
2018-06-13T15:24:49.752Z,20.30
2018-06-13T15:27:19.105Z,20.40
2018-06-13T15:29:48.428Z,20.40
2018-06-13T15:32:18.012Z,20.50
2018-06-13T15:34:47.220Z,20.20
2018-06-13T15:37:16.599Z,20.00
2018-06-13T15:42:15.000Z,19.90
2018-06-13T15:47:14.213Z,19.80
2018-06-13T15:52:12.630Z,19.70
2018-06-13T15:54:41.936Z,19.70
2018-06-13T15:57:11.587Z,19.60
2018-06-13T15:59:40.796Z,19.50
2018-06-13T16:02:10.044Z,19.40
2018-06-13T16:04:39.295Z,19.50
2018-06-13T16:07:08.738Z,19.40
2018-06-13T16:09:38.017Z,19.40
2018-06-13T16:12:07.468Z,19.40
2018-06-13T16:14:36.892Z,19.40
2018-06-13T16:17:06.393Z,19.40
2018-06-13T16:19:36.251Z,19.50
2018-06-13T16:22:05.857Z,19.60
2018-06-13T16:24:35.744Z,19.60
2018-06-13T16:27:05.258Z,19.60
2018-06-13T16:29:34.660Z,19.60
2018-06-13T16:32:03.996Z,19.50
2018-06-13T16:34:33.348Z,19.50
2018-06-13T16:37:02.785Z,19.30
2018-06-13T16:39:32.033Z,19.20
2018-06-13T16:42:01.473Z,19.10
2018-06-13T16:44:30.836Z,19.10
2018-06-13T16:47:00.244Z,19.00
2018-06-13T16:49:29.522Z,19.00
2018-06-13T16:51:59.090Z,18.90
2018-06-13T16:54:39.652Z,18.90
2018-06-13T16:57:08.892Z,18.90
2018-06-13T16:59:38.728Z,18.90
2018-06-13T17:02:08.076Z,18.80
2018-06-13T17:04:37.265Z,18.80
2018-06-13T17:07:06.875Z,18.80
2018-06-13T17:09:36.063Z,18.80
2018-06-13T17:12:05.380Z,18.80
2018-06-13T17:14:34.594Z,18.80
2018-06-13T17:17:04.043Z,18.80
2018-06-13T17:19:33.249Z,18.70
2018-06-13T17:22:02.542Z,18.70
2018-06-13T17:24:31.773Z,18.70
2018-06-13T17:27:00.998Z,18.60
2018-06-13T17:29:30.218Z,18.60
2018-06-13T17:31:59.576Z,18.60
2018-06-13T17:34:28.796Z,18.60
2018-06-13T17:36:58.074Z,18.50
2018-06-13T17:39:27.466Z,18.40
2018-06-13T17:41:57.420Z,18.30
2018-06-13T17:44:26.702Z,18.30
2018-06-13T17:46:56.157Z,18.30
2018-06-13T17:49:26.019Z,18.30
2018-06-13T17:51:55.358Z,18.30
2018-06-13T17:54:24.619Z,18.20
2018-06-13T17:56:54.105Z,18.20
2018-06-13T17:59:23.494Z,18.20
2018-06-13T18:01:52.706Z,18.20
2018-06-13T18:06:50.953Z,18.20
2018-06-13T18:09:20.306Z,18.20
2018-06-13T18:11:49.629Z,18.20
2018-06-13T18:14:18.875Z,18.20
2018-06-13T18:16:48.273Z,18.20
2018-06-13T18:19:17.523Z,18.20
2018-06-13T18:21:47.268Z,18.20
2018-06-13T18:24:16.568Z,18.20
2018-06-13T18:26:46.233Z,18.10
2018-06-13T18:29:15.603Z,18.10
2018-06-13T18:31:44.855Z,18.00
2018-06-13T18:34:14.405Z,17.90
2018-06-13T18:36:43.764Z,17.80
2018-06-13T18:39:13.438Z,17.70
2018-06-13T18:41:43.132Z,17.70
2018-06-13T18:44:12.764Z,17.70
2018-06-13T18:46:42.050Z,17.70
2018-06-13T18:51:40.609Z,17.50
2018-06-13T18:54:09.905Z,17.50
2018-06-13T18:56:39.355Z,17.50
2018-06-13T18:59:08.730Z,17.50
2018-06-13T19:01:37.937Z,17.50
2018-06-13T19:04:07.220Z,17.40
2018-06-13T19:06:36.455Z,17.40
2018-06-13T19:09:08.606Z,17.40
2018-06-13T19:11:37.853Z,17.40
2018-06-13T19:14:07.821Z,17.40
2018-06-13T19:19:06.899Z,17.20
2018-06-13T19:21:36.136Z,17.30
2018-06-13T19:24:05.500Z,17.20
2018-06-13T19:26:34.740Z,17.20
2018-06-13T19:29:04.208Z,17.20
2018-06-13T19:31:33.441Z,17.10
2018-06-13T19:34:02.746Z,17.10
2018-06-13T19:36:31.951Z,17.00
2018-06-13T19:39:01.157Z,17.10
2018-06-13T19:41:30.407Z,17.00
2018-06-13T19:43:59.748Z,17.10
2018-06-13T19:46:29.007Z,17.10
2018-06-13T19:48:58.229Z,17.00
2018-06-13T19:51:27.468Z,17.00
2018-06-13T19:54:02.079Z,17.00
2018-06-13T19:56:32.384Z,17.00
2018-06-13T19:59:01.785Z,16.90
2018-06-13T20:01:31.093Z,16.90
2018-06-13T20:04:05.886Z,16.90
2018-06-13T20:06:38.280Z,16.80
2018-06-13T20:09:09.332Z,16.80
2018-06-13T20:11:38.593Z,16.80
2018-06-13T20:14:13.252Z,16.90
2018-06-13T20:16:53.131Z,16.80
2018-06-13T20:19:27.716Z,16.70
2018-06-13T20:24:27.377Z,16.70
2018-06-13T20:27:02.672Z,16.60
2018-06-13T20:29:37.111Z,16.60
2018-06-13T20:32:06.618Z,16.50
2018-06-13T20:34:35.812Z,16.50
2018-06-13T20:37:05.354Z,16.50
2018-06-13T20:39:34.555Z,16.50
2018-06-13T20:42:04.024Z,16.50
2018-06-13T20:44:33.355Z,16.60
2018-06-13T20:47:02.604Z,16.60
2018-06-13T20:49:31.836Z,16.50
2018-06-13T20:52:01.103Z,16.50
2018-06-13T20:56:59.608Z,16.50
2018-06-13T20:59:28.907Z,16.40
2018-06-13T21:01:58.555Z,16.40
2018-06-13T21:04:27.841Z,16.30
2018-06-13T21:06:57.203Z,16.30
2018-06-13T21:09:26.610Z,16.30
2018-06-13T21:11:55.827Z,16.30
2018-06-13T21:14:25.005Z,16.20
2018-06-13T21:19:23.192Z,16.10
2018-06-13T21:21:52.527Z,16.10
2018-06-13T21:24:21.823Z,15.90
2018-06-13T21:26:51.080Z,15.90
2018-06-13T21:29:20.288Z,16.00
2018-06-13T21:31:49.538Z,16.00
2018-06-13T21:34:19.088Z,16.00
2018-06-13T21:36:48.380Z,16.00
2018-06-13T21:39:18.187Z,16.00
2018-06-13T21:41:47.421Z,15.90
2018-06-13T21:44:16.643Z,15.90
2018-06-13T21:46:46.362Z,15.90
2018-06-13T21:49:15.598Z,15.80
2018-06-13T21:51:44.920Z,15.70
2018-06-13T21:56:43.225Z,15.70
2018-06-13T21:59:12.936Z,15.70
2018-06-13T22:01:42.443Z,15.70
2018-06-13T22:04:11.799Z,15.70
2018-06-13T22:06:41.041Z,15.60
2018-06-13T22:09:11.474Z,15.60
2018-06-13T22:11:46.073Z,15.50
2018-06-13T22:14:16.248Z,15.40
2018-06-13T22:16:45.440Z,15.50
2018-06-13T22:19:14.669Z,15.50
2018-06-13T22:21:43.885Z,15.50
2018-06-13T22:24:13.493Z,15.50
2018-06-13T22:26:42.740Z,15.40
2018-06-13T22:29:12.005Z,15.40
2018-06-13T22:31:41.367Z,15.40
2018-06-13T22:34:10.550Z,15.40
2018-06-13T22:36:39.785Z,15.40
2018-06-13T22:39:11.420Z,15.40
2018-06-13T22:41:40.862Z,15.30
2018-06-13T22:44:10.048Z,15.40
2018-06-13T22:46:39.583Z,15.30
2018-06-13T22:49:09.073Z,15.30
2018-06-13T22:51:39.143Z,15.30
2018-06-13T22:54:08.752Z,15.30
2018-06-13T22:56:38.049Z,15.30
2018-06-13T22:59:07.478Z,15.30
2018-06-13T23:01:36.699Z,15.20
2018-06-13T23:04:05.928Z,15.20
2018-06-13T23:06:35.228Z,15.10
2018-06-13T23:09:06.807Z,15.10
2018-06-13T23:11:36.652Z,15.10
2018-06-13T23:16:34.677Z,15.00
2018-06-13T23:19:03.936Z,15.00
2018-06-13T23:21:33.184Z,15.00
2018-06-13T23:24:02.409Z,14.80
2018-06-13T23:26:31.623Z,14.70
2018-06-13T23:29:00.914Z,14.70
2018-06-13T23:31:30.147Z,14.70
2018-06-13T23:33:59.416Z,14.70
2018-06-13T23:36:28.660Z,14.70
2018-06-13T23:38:57.897Z,14.60
2018-06-13T23:41:27.071Z,14.60
2018-06-13T23:43:56.235Z,14.60
2018-06-13T23:46:25.435Z,14.60
2018-06-13T23:48:54.673Z,14.50
2018-06-13T23:51:24.021Z,14.50
2018-06-13T23:53:53.451Z,14.50
2018-06-13T23:56:22.811Z,14.30
2018-06-13T23:58:52.030Z,14.20
